• Join FlightAware (Why Join?)
  • Login
  • US Flag 
08:51PM EDT


 

Airport Tracker/Info


-or-


 

Live Flight TrackerFlight Track Log ✈ N6319G ✈ 28-Oct-2013 ✈ KDBQ - KDBQ

Flight Track Log - Related Links

Times and Time Zones

All times are in EDT time to prevent confusion due to time zone crossing. See the N6319G flight status page for this flight to view local times or setup timezone preferences in your user account.

Time Position Orientation Groundspeed Altitude Reporting Facility
EDT Latitude Longitude Course Direction KTS MPH feet Rate Location/Type
03:45PM 42.4114 -90.7031 163° South 77 89 1,900  Level Chicago Center
03:46PM 42.3914 -90.7125 199° South 94 108 2,700 780 Climbing Chicago Center
03:47PM 42.3744 -90.6961 144° Southeast 79 91 3,600 780 Climbing Chicago Center
03:48PM 42.3581 -90.6881 160° South 70 81 4,400 660 Climbing Chicago Center
03:49PM 42.4020 -90.7095 166° South  Level Estimated
03:49PM 42.3386 -90.6833 170° South 68 78 5,000  Level Chicago Center
03:50PM 42.4020 -90.7095 166° South  Level Estimated
03:50PM 42.3086 -90.6747 168° South 79 91 5,000  Level Chicago Center
03:51PM 42.4020 -90.7095 163° South  Level Estimated
03:51PM 42.2828 -90.6658 166° South 89 102 5,000  Level Chicago Center
03:52PM 42.2564 -90.6558 164° South 94 108 5,000  Level Chicago Center
03:54PM 42.2322 -90.6483 167° South 93 107 5,000  Level Chicago Center
03:55PM 42.2075 -90.6394 165° South 92 106 5,000  Level Chicago Center
03:56PM 42.1775 -90.6283 165° South 93 107 5,000  Level Chicago Center
03:57PM 42.1522 -90.6200 166° South 93 107 5,000  Level Chicago Center
03:58PM 42.1261 -90.6117 167° South 94 108 5,000  Level Chicago Center
03:59PM 42.1006 -90.6017 164° South 96 110 5,000  Level Chicago Center
04:00PM 42.0756 -90.5914 163° South 96 110 5,000  Level Chicago Center
04:01PM 42.0456 -90.5786 162° South 96 110 5,000  Level Chicago Center
04:02PM 42.0189 -90.5706 167° South 96 110 5,000  Level Chicago Center
04:03PM 41.9933 -90.5614 165° South 97 112 5,000  Level Chicago Center
04:04PM 41.9669 -90.5547 169° South 96 110 5,000 -240 Level Chicago Center
04:05PM 41.9408 -90.5450 165° South 98 113 4,500 -600 Descending Chicago Center
04:06PM 41.9089 -90.5378 170° South 97 112 3,800 -600 Descending Chicago Center
04:07PM 41.8783 -90.5381 180° South 98 113 3,300 -120 Descending Chicago Center
04:09PM 41.8655 -90.4919 110° East  Level FlightAware Approximate
04:15PM 41.6933 -90.4383 332° Northwest 90 104 2,900  Level Chicago Center
04:16PM 41.8473 -90.3385 332° Northwest  Level FlightAware Approximate
04:16PM 41.7144 -90.4208 32° Northeast 88 101 3,000  Level Chicago Center
04:17PM 41.8687 -90.3537 332° Northwest  Level FlightAware Approximate
04:17PM 41.7392 -90.4050 26° Northeast 89 102 3,000  Level Chicago Center
04:18PM 41.8900 -90.3689 332° Northwest  Level FlightAware Approximate
04:19PM 41.7690 -90.4125 349° North  Level FlightAware Approximate
04:19PM 41.9114 -90.3842 332° Northwest  Level FlightAware Approximate
04:20PM 41.9327 -90.3994 332° Northwest  Level FlightAware Approximate
04:25PM 41.8953 -90.3489 338° Northwest 94 108 4,000  Level Chicago Center
04:26PM 41.9198 -90.4504 349° North  Level FlightAware Approximate
04:26PM 41.9214 -90.3656 335° Northwest 271 312 4,000  Level Chicago Center
04:27PM 41.9413 -90.4559 349° North  Level FlightAware Approximate
04:27PM 41.9489 -90.3878 329° Northwest 125 144 4,100  Level Chicago Center
04:28PM 41.9629 -90.4613 349° North  Level FlightAware Approximate
04:29PM 41.9845 -90.4668 349° North  Level FlightAware Approximate
04:29PM 41.9831 -90.3972 348° North 124 143 4,000  Level Chicago Center
04:30PM 42.0046 -90.4784 337° Northwest  Level Estimated
04:30PM 42.0111 -90.4208 328° Northwest 122 140 3,900  Level Chicago Center
04:31PM 42.0295 -90.4921 338° Northwest  Level FlightAware Approximate
04:31PM 42.0406 -90.4425 331° Northwest 122 140 4,000  Level Chicago Center
04:32PM 42.0747 -90.4664 333° Northwest 119 137 4,000  Level Chicago Center
04:33PM 42.1042 -90.4847 335° Northwest 118 136 4,000 -60 Level Chicago Center
04:34PM 42.1333 -90.5064 331° Northwest 119 137 3,900 -60 Descending Chicago Center
04:35PM 42.1500 -90.5469 299° West 121 139 3,900 -240 Level Chicago Center
04:36PM 42.1597 -90.5900 287° West 121 139 3,500 -420 Descending Chicago Center
04:37PM 42.1733 -90.6383 291° West 118 136 3,100 -300 Descending Chicago Center
04:38PM 42.1825 -90.6786 287° West 115 132 2,900 -60 Descending Chicago Center
04:39PM 42.2017 -90.7069 312° West 109 125 3,000  Climbing Chicago Center
04:40PM 42.2308 -90.7147 349° North 107 123 3,000 -60 Level Chicago Center
04:41PM 42.2594 -90.7125 North 95 109 2,900  Descending Chicago Center
04:42PM 42.2836 -90.7136 358° North 90 104 3,000 -120 Climbing Chicago Center
04:43PM 42.3092 -90.7131 North 90 104 2,700 -420 Descending Chicago Center
04:44PM 42.3358 -90.7122 North 93 107 2,200 -420 Descending Chicago Center
04:45PM 42.3631 -90.7114 North 93 107 1,900 -300 Descending Chicago Center
04:47PM 42.4000 -90.7000 346° North  Level FlightAware Approximate